Terminal Aerodrome Forecast
Issued by NWS

Home | Current Version | Previous Version | Text Only | Print | Product List | Glossary On
Versions: 1 2 3 4 5 6 7 8 9 10 11 12 13 14
000
FTUS42 KMLB 172300
TAFISM
TAF
KISM 172337Z 1800/1824 24005KT P6SM BKN250
     FM180100 00000KT P6SM SCT250
      TEMPO 1810/1812 5SM BR
     FM181400 01003KT P6SM SCT020 SCT150 SCT250
     FM181900 05006KT P6SM VCSH SCT030 SCT080
      AMD NOT SKED 1802/1811=

USA.gov is the U.S. government's official web portal to all federal, state and local government web resources and services.